Time;durP1;ratioP1;P1;durP2;ratioP2;P2;SDS_P1;SDS_P2;PMS_P1;PMS_P2;Temp;Humidity;BMP_temperature;BMP_pressure;BME280_temperature;BME280_humidity;BME280_pressure;Samples;Min_cycle;Max_cycle;Signal;HPM_P1;HPM_P2
2023/07/06 00:01:14;;;;;;;;;10.67;8.67;;;;;20.53;47.83;101214.59;5067584;28;45613;-73
2023/07/06 00:03:40;;;;;;;;;7.33;6.33;;;;;20.58;48.17;101224.50;5087252;27;45277;-72
2023/07/06 00:06:09;;;;;;;;;10.67;8.33;;;;;20.36;48.42;101191.19;5058370;28;47066;-73
2023/07/06 00:08:37;;;;;;;;;20.75;18.00;;;;;20.48;48.27;101208.31;5087806;27;45266;-73
2023/07/06 00:11:04;;;;;;;;;10.33;9.33;;;;;20.43;48.65;101206.50;5086450;28;45324;-74
2023/07/06 00:13:30;;;;;;;;;6.33;6.33;;;;;20.41;48.92;101208.34;5090570;27;44968;-73
2023/07/06 00:15:56;;;;;;;;;7.00;5.67;;;;;20.51;49.25;101230.91;5076893;28;45229;-73
2023/07/06 00:18:22;;;;;;;;;6.33;6.33;;;;;20.43;49.11;101222.78;5081684;28;45103;-72
2023/07/06 00:20:49;;;;;;;;;8.00;8.00;;;;;20.46;49.42;101240.88;5086836;27;45026;-73
2023/07/06 00:23:15;;;;;;;;;7.33;7.33;;;;;20.28;49.77;101208.41;5084430;28;45087;-73
2023/07/06 00:25:41;;;;;;;;;10.00;7.00;;;;;20.41;49.64;101237.31;5066969;28;48271;-73
2023/07/06 00:28:09;;;;;;;;;6.33;6.33;;;;;20.39;49.59;101236.38;5088566;28;45069;-73
2023/07/06 00:33:16;;;;;;;;;7.67;6.00;;;;;20.36;49.74;101228.25;5089637;27;45184;-71
2023/07/06 00:35:42;;;;;;;;;7.67;6.00;;;;;20.32;49.89;101227.38;5087313;27;45647;-72
2023/07/06 00:38:14;;;;;;;;;14.67;13.33;;;;;20.31;49.89;101232.81;5092111;28;45098;-73
2023/07/06 00:40:44;;;;;;;;;9.33;8.00;;;;;20.11;50.03;101209.41;5093925;28;45169;-72
2023/07/06 00:43:17;;;;;;;;;7.33;7.00;;;;;20.23;49.88;101241.91;5093328;27;45106;-73
2023/07/06 00:45:44;;;;;;;;;6.67;5.33;;;;;20.07;50.12;101218.50;5076381;28;47404;-73
2023/07/06 00:48:33;;;;;;;;;6.00;6.00;;;;;20.20;50.18;101239.22;5081733;27;45039;-74
2023/07/06 00:51:04;;;;;;;;;7.00;5.67;;;;;20.21;50.04;101240.09;5091063;28;45075;-73
2023/07/06 00:53:35;;;;;;;;;8.67;5.00;;;;;20.15;50.04;101234.75;5093782;27;45082;-72
2023/07/06 00:56:01;;;;;;;;;6.00;5.00;;;;;20.12;49.96;101234.75;5091595;28;45406;-71
2023/07/06 00:58:36;;;;;;;;;7.00;7.00;;;;;20.14;50.34;101241.06;5064224;27;45389;-73
2023/07/06 01:01:06;;;;;;;;;10.33;4.67;;;;;20.14;50.34;101243.78;5076161;28;45423;-72
2023/07/06 01:03:43;;;;;;;;;8.33;6.67;;;;;20.12;50.26;101246.50;5086889;28;45230;-71
2023/07/06 01:06:15;;;;;;;;;12.33;7.00;;;;;20.09;50.73;101249.22;5089226;27;45638;-71
2023/07/06 01:08:40;;;;;;;;;5.00;5.00;;;;;19.93;50.71;101224.00;5086340;28;45933;-71
2023/07/06 01:11:09;;;;;;;;;11.33;4.00;;;;;19.74;50.78;101192.41;5081204;28;45283;-72
2023/07/06 01:13:35;;;;;;;;;6.67;5.33;;;;;19.87;51.08;101232.16;5091319;28;45113;-73
2023/07/06 01:16:18;;;;;;;;;4.00;4.00;;;;;19.90;51.01;101243.00;5085156;27;45322;-71
2023/07/06 01:19:16;;;;;;;;;7.00;5.33;;;;;19.89;51.38;101246.59;5093725;28;45130;-71
2023/07/06 01:22:04;;;;;;;;;7.00;5.67;;;;;19.86;51.41;101246.63;5093807;27;45482;-70
2023/07/06 01:24:54;;;;;;;;;18.00;8.00;;;;;19.84;51.36;101248.44;5072671;28;45308;-72
2023/07/06 01:27:32;;;;;;;;;11.00;10.00;;;;;19.83;51.48;101250.25;5070008;28;45815;-71
2023/07/06 01:30:19;;;;;;;;;6.00;4.67;;;;;19.83;51.49;101246.63;5059480;28;45117;-72
2023/07/06 01:32:55;;;;;;;;;4.33;4.33;;;;;19.72;51.92;101227.66;5059896;28;45221;-71
2023/07/06 01:35:50;;;;;;;;;4.33;4.33;;;;;19.64;51.57;101224.09;5072806;28;45015;-72
2023/07/06 01:38:16;;;;;;;;;5.33;4.33;;;;;19.74;51.68;101231.25;5055788;28;45361;-71
2023/07/06 01:40:42;;;;;;;;;6.33;6.33;;;;;19.76;51.59;101243.03;5071436;28;45015;-71
2023/07/06 01:43:07;;;;;;;;;6.67;6.00;;;;;19.77;51.43;101239.44;5067630;28;45088;-72
2023/07/06 01:45:35;;;;;;;;;7.00;6.67;;;;;19.66;51.31;101222.25;5069267;28;45052;-71
2023/07/06 01:48:10;;;;;;;;;7.00;7.00;;;;;19.73;51.50;101233.97;5073063;28;45296;-71
2023/07/06 01:50:41;;;;;;;;;6.00;6.00;;;;;19.73;51.57;101233.97;5066941;28;45233;-69
2023/07/06 01:53:31;;;;;;;;;6.67;5.67;;;;;19.76;51.59;101232.19;5061264;28;45285;-71
2023/07/06 01:56:04;;;;;;;;;5.33;5.00;;;;;19.73;51.64;101236.69;5070553;28;45201;-69
2023/07/06 01:58:29;;;;;;;;;8.33;7.00;;;;;19.72;51.51;101234.91;5064907;28;45495;-71
2023/07/06 02:01:04;;;;;;;;;5.67;4.00;;;;;19.58;51.45;101213.25;5066921;28;45421;-71
2023/07/06 02:03:30;;;;;;;;;5.67;5.33;;;;;19.69;51.33;101227.69;5064808;28;45408;-73
2023/07/06 02:05:56;;;;;;;;;6.00;6.00;;;;;19.60;51.58;101215.06;5056226;28;45443;-71
2023/07/06 02:08:23;;;;;;;;;6.00;6.00;;;;;19.61;51.46;101221.38;5062484;28;45220;-72
2023/07/06 02:10:50;;;;;;;;;6.67;6.33;;;;;19.65;51.62;101229.50;5066488;28;45097;-70
2023/07/06 02:13:16;;;;;;;;;9.33;7.33;;;;;19.54;51.71;101209.66;5058109;28;45009;-72
2023/07/06 02:15:42;;;;;;;;;6.33;6.33;;;;;19.65;51.46;101225.88;5070446;28;45256;-72
2023/07/06 02:18:07;;;;;;;;;7.00;6.00;;;;;19.66;51.46;101228.56;5064957;28;47328;-72
2023/07/06 02:20:34;;;;;;;;;9.67;7.67;;;;;19.64;51.38;101222.25;5071929;28;44923;-70
2023/07/06 02:23:00;;;;;;;;;9.00;6.00;;;;;19.53;51.31;101199.72;5072435;28;45137;-69
2023/07/06 02:25:25;;;;;;;;;5.67;5.67;;;;;19.60;51.25;101225.91;5088336;28;45145;-72
2023/07/06 02:27:51;;;;;;;;;10.33;9.33;;;;;19.59;51.38;101223.19;5087938;28;45892;-72
2023/07/06 02:30:16;;;;;;;;;5.33;3.00;;;;;19.57;51.47;101225.91;5077538;27;45093;-70
2023/07/06 02:32:42;;;;;;;;;8.33;6.00;;;;;19.52;51.37;101215.06;5092325;27;45107;-71
2023/07/06 02:35:10;;;;;;;;;6.33;5.67;;;;;19.50;51.29;101219.59;5081634;28;45317;-71
2023/07/06 02:37:38;;;;;;;;;4.67;4.67;;;;;19.51;51.34;101220.50;5068858;28;46244;-72
2023/07/06 02:40:07;;;;;;;;;8.67;4.33;;;;;19.47;51.38;101216.91;5088009;27;45388;-74
2023/07/06 02:42:34;;;;;;;;;4.67;4.67;;;;;19.46;51.49;101219.63;5089753;27;45309;-71
2023/07/06 02:44:59;;;;;;;;;7.00;6.33;;;;;19.46;51.62;101220.50;5091703;28;45792;-70
2023/07/06 02:47:25;;;;;;;;;7.33;7.00;;;;;19.46;51.16;101220.50;5078172;28;45994;-70
2023/07/06 02:49:50;;;;;;;;;7.33;6.00;;;;;19.48;51.82;101225.94;5089808;27;45240;-72
2023/07/06 02:52:16;;;;;;;;;10.00;6.67;;;;;19.48;51.78;101229.53;5085925;28;45517;-71
2023/07/06 02:54:41;;;;;;;;;6.67;5.67;;;;;19.31;52.05;101210.63;5091732;27;45437;-70
2023/07/06 02:57:06;;;;;;;;;7.00;6.33;;;;;19.41;52.22;101229.56;5070990;27;47708;-71
2023/07/06 02:59:32;;;;;;;;;8.67;7.00;;;;;19.46;52.23;101241.28;5079005;28;45295;-71
2023/07/06 03:02:00;;;;;;;;;7.00;7.00;;;;;19.46;52.09;101242.19;5085664;27;45070;-71
2023/07/06 03:04:27;;;;;;;;;12.00;10.67;;;;;19.46;52.38;101246.72;5069315;28;44969;-71
2023/07/06 03:06:55;;;;;;;;;12.67;9.00;;;;;19.37;52.35;101230.47;5070213;28;46108;-71
2023/07/06 03:09:21;;;;;;;;;11.33;9.33;;;;;19.42;52.49;101239.47;5084841;28;45047;-69
2023/07/06 03:11:47;;;;;;;;;6.33;6.00;;;;;19.20;52.83;101204.31;5085916;27;45362;-70
2023/07/06 03:14:12;;;;;;;;;25.25;20.75;;;;;19.34;52.93;101247.66;5077962;27;45298;-71
2023/07/06 03:16:41;;;;;;;;;10.33;5.00;;;;;19.23;53.21;101230.50;5085326;27;45752;-72
2023/07/06 03:19:12;;;;;;;;;13.00;10.00;;;;;19.12;53.50;101222.38;5068035;28;45168;-72
2023/07/06 03:21:38;;;;;;;;;8.33;6.33;;;;;19.12;53.36;101223.31;5088297;28;44921;-71
2023/07/06 03:24:06;;;;;;;;;7.00;6.33;;;;;19.01;53.62;101214.28;5081068;28;45931;-72
2023/07/06 03:26:33;;;;;;;;;6.00;6.00;;;;;19.09;53.62;101227.78;5073275;28;45216;-71
2023/07/06 03:29:00;;;;;;;;;9.33;8.67;;;;;19.12;53.50;101235.91;5091361;28;45129;-70
2023/07/06 03:31:25;;;;;;;;;10.67;7.33;;;;;19.11;53.74;101236.84;5085296;28;45108;-71
2023/07/06 03:33:50;;;;;;;;;9.33;9.33;;;;;19.03;53.57;101222.41;5088183;27;45159;-71
2023/07/06 03:36:16;;;;;;;;;7.67;5.00;;;;;19.06;53.69;101239.56;5065662;28;45575;-72
2023/07/06 03:38:42;;;;;;;;;9.67;6.67;;;;;19.06;53.78;101241.38;5080236;28;45012;-72
2023/07/06 03:41:07;;;;;;;;;10.00;7.33;;;;;18.87;53.61;101208.84;5091121;27;45204;-74
2023/07/06 03:43:33;;;;;;;;;7.67;7.67;;;;;19.08;54.05;101243.16;5088737;28;45037;-74
2023/07/06 03:45:59;;;;;;;;;7.67;7.67;;;;;19.09;53.70;101250.38;5079956;28;45638;-72
2023/07/06 03:48:26;;;;;;;;;7.00;7.00;;;;;19.12;53.49;101247.69;5070426;28;45463;-72
2023/07/06 03:50:52;;;;;;;;;9.00;8.00;;;;;19.02;53.61;101239.56;5065636;28;45747;-73
2023/07/06 03:53:21;;;;;;;;;7.33;5.00;;;;;19.10;53.65;101249.47;5074140;28;45559;-73
2023/07/06 03:55:51;;;;;;;;;7.67;6.33;;;;;19.02;53.50;101231.44;5070184;27;45697;-73
2023/07/06 03:58:20;;;;;;;;;6.33;5.67;;;;;19.12;53.63;101246.75;5057176;28;45522;-71
2023/07/06 04:00:47;;;;;;;;;7.67;5.33;;;;;19.04;53.69;101224.19;5087309;28;45820;-72
2023/07/06 04:03:12;;;;;;;;;6.67;5.67;;;;;19.07;53.60;101229.63;5068920;28;46948;-73
2023/07/06 04:05:43;;;;;;;;;7.00;6.00;;;;;19.13;53.62;101249.47;5058257;28;45993;-73
2023/07/06 04:08:13;;;;;;;;;10.00;8.33;;;;;18.81;53.71;101195.31;5063336;28;45404;-73
2023/07/06 04:10:40;;;;;;;;;8.33;8.33;;;;;19.09;53.96;101244.97;5064806;28;45503;-73
2023/07/06 04:13:05;;;;;;;;;7.00;7.00;;;;;19.11;53.84;101251.28;5062498;28;45863;-73
2023/07/06 04:15:33;;;;;;;;;8.00;6.67;;;;;19.05;53.81;101242.25;5091383;27;45513;-73
2023/07/06 04:17:58;;;;;;;;;8.00;6.00;;;;;18.81;53.85;101206.16;5094794;28;45164;-73
2023/07/06 04:20:29;;;;;;;;;10.33;8.33;;;;;19.06;53.89;101249.50;5095409;27;45176;-72
2023/07/06 04:22:57;;;;;;;;;5.00;5.00;;;;;19.03;53.80;101244.97;5095290;27;45158;-70
2023/07/06 04:25:29;;;;;;;;;7.33;7.33;;;;;19.05;53.87;101245.84;5071232;28;46210;-74
2023/07/06 04:27:55;;;;;;;;;6.00;5.00;;;;;19.09;53.58;101249.47;5091107;27;45095;-73
2023/07/06 04:30:21;;;;;;;;;4.33;4.33;;;;;19.10;53.63;101252.16;5078643;28;45329;-73
2023/07/06 04:32:51;;;;;;;;;12.33;8.67;;;;;19.10;53.95;101246.75;5091121;28;45130;-71
2023/07/06 04:35:23;;;;;;;;;10.67;7.33;;;;;19.06;54.32;101231.44;5088423;28;45818;-75
2023/07/06 04:37:50;;;;;;;;;9.00;7.00;;;;;19.18;54.35;101243.16;5093292;27;45100;-70
2023/07/06 04:40:18;;;;;;;;;9.33;9.33;;;;;19.09;54.38;101230.50;5078571;28;45008;-74
2023/07/06 04:42:46;;;;;;;;;12.00;8.33;;;;;19.21;54.06;101252.19;5071103;28;45215;-70
2023/07/06 04:45:12;;;;;;;;;9.67;7.33;;;;;19.22;53.63;101263.91;5058908;28;46953;-71
2023/07/06 04:47:39;;;;;;;;;8.00;6.00;;;;;19.21;53.70;101254.00;5069317;28;45546;-74
2023/07/06 04:50:17;;;;;;;;;5.00;5.00;;;;;19.18;53.19;101264.81;5075874;28;45449;-71
2023/07/06 04:52:45;;;;;;;;;5.00;5.00;;;;;19.19;53.18;101261.19;5060313;28;45463;-69
2023/07/06 04:55:12;;;;;;;;;11.67;8.67;;;;;19.06;53.31;101242.25;5060087;28;46876;-71
2023/07/06 04:57:38;;;;;;;;;10.33;7.00;;;;;19.14;53.16;101258.50;5072239;27;45400;-71
2023/07/06 05:00:18;;;;;;;;;10.33;8.33;;;;;19.05;53.54;101240.44;5077291;27;45408;-73
2023/07/06 05:02:45;;;;;;;;;7.00;7.00;;;;;19.08;53.61;101239.56;5070186;28;45764;-69
2023/07/06 05:05:12;;;;;;;;;6.00;4.00;;;;;19.16;53.53;101254.00;5074302;28;46156;-70
2023/07/06 05:07:41;;;;;;;;;13.33;7.33;;;;;19.20;53.26;101260.31;5079799;28;45624;-74
2023/07/06 05:10:08;;;;;;;;;6.67;5.33;;;;;19.16;52.76;101256.69;5079271;28;45449;-70
2023/07/06 05:12:34;;;;;;;;;4.33;4.33;;;;;18.93;52.62;101219.69;5079735;28;45434;-71
2023/07/06 05:15:00;;;;;;;;;51.00;43.00;;;;;19.18;52.84;101271.13;5078422;27;45310;-71
2023/07/06 05:17:26;;;;;;;;;22.00;20.00;;;;;19.13;52.73;101260.31;5054625;28;46210;-72
2023/07/06 05:19:52;;;;;;;;;12.67;12.67;;;;;19.12;52.91;101260.28;5054587;28;45684;-69
2023/07/06 05:22:18;;;;;;;;;11.33;8.00;;;;;19.20;52.59;101268.44;5079787;28;45472;-71
2023/07/06 05:24:44;;;;;;;;;11.00;9.67;;;;;19.20;53.23;101273.84;5082510;27;45370;-70
2023/07/06 05:27:10;;;;;;;;;11.33;8.67;;;;;19.19;53.11;101269.31;5080491;27;45541;-72
2023/07/06 05:29:35;;;;;;;;;6.33;6.33;;;;;19.14;53.13;101262.13;5078045;27;45542;-71
2023/07/06 05:32:00;;;;;;;;;13.00;5.00;;;;;19.20;53.09;101274.75;5072934;28;45376;-74
2023/07/06 05:34:26;;;;;;;;;14.00;12.33;;;;;19.22;53.52;101272.03;5080093;27;45432;-73
2023/07/06 05:36:51;;;;;;;;;8.67;8.00;;;;;19.25;53.49;101264.78;5077014;28;45368;-72
2023/07/06 05:39:16;;;;;;;;;8.33;6.67;;;;;19.28;53.21;101263.91;5063924;28;45299;-72
2023/07/06 05:41:43;;;;;;;;;8.00;6.67;;;;;19.27;53.02;101259.38;5053565;28;45469;-69
2023/07/06 05:44:09;;;;;;;;;12.67;12.33;;;;;19.11;53.37;101235.03;5074226;28;45322;-73
2023/07/06 05:46:34;;;;;;;;;10.33;9.00;;;;;19.28;53.16;101269.31;5070133;28;45406;-72
2023/07/06 05:49:00;;;;;;;;;7.67;6.33;;;;;19.34;52.90;101274.75;5054859;28;45555;-71
2023/07/06 05:51:25;;;;;;;;;9.00;9.00;;;;;19.22;52.85;101245.88;5071831;27;47759;-72
2023/07/06 05:53:51;;;;;;;;;9.33;8.67;;;;;19.05;52.89;101216.06;5066030;28;45653;-72
2023/07/06 05:56:18;;;;;;;;;11.33;8.67;;;;;19.39;52.34;101280.16;5061434;28;55149;-74
2023/07/06 05:58:44;;;;;;;;;10.33;9.33;;;;;19.41;52.99;101272.94;5068102;28;46096;-70
2023/07/06 06:01:12;;;;;;;;;17.00;14.33;;;;;19.41;52.78;101267.50;5056164;28;45577;-72
2023/07/06 06:03:40;;;;;;;;;10.00;9.00;;;;;19.38;52.64;101256.66;5058994;28;48541;-73
2023/07/06 06:06:06;;;;;;;;;27.25;22.00;;;;;19.51;52.90;101274.72;5076911;27;45467;-74
2023/07/06 06:08:32;;;;;;;;;4.67;4.67;;;;;19.49;52.21;101262.97;5056564;28;45318;-71
2023/07/06 06:11:00;;;;;;;;;7.33;5.33;;;;;19.58;51.84;101273.78;5068558;27;45454;-74
2023/07/06 06:13:26;;;;;;;;;8.00;7.00;;;;;19.54;52.36;101269.28;5057865;28;47451;-72
2023/07/06 06:15:51;;;;;;;;;32.25;27.75;;;;;19.54;52.17;101260.25;5076242;28;45548;-72
2023/07/06 06:18:17;;;;;;;;;13.67;12.33;;;;;19.68;51.73;101285.50;5073958;27;45462;-74
2023/07/06 06:20:42;;;;;;;;;13.67;10.67;;;;;19.55;51.37;101265.69;5078445;27;45311;-72
2023/07/06 06:23:10;;;;;;;;;7.33;6.00;;;;;19.63;51.23;101290.97;5077167;27;46015;-71
2023/07/06 06:25:38;;;;;;;;;6.00;6.00;;;;;19.64;51.23;101281.91;5067901;28;45476;-71
2023/07/06 06:28:05;;;;;;;;;8.00;6.00;;;;;19.69;51.05;101282.78;5071172;27;45554;-70
2023/07/06 06:30:30;;;;;;;;;6.00;6.00;;;;;19.56;51.15;101258.44;5074825;28;45554;-70
2023/07/06 06:32:57;;;;;;;;;9.33;6.33;;;;;19.77;50.70;101285.53;5073788;28;45480;-72
2023/07/06 06:35:28;;;;;;;;;25.75;20.25;;;;;19.82;50.93;101282.81;5075125;27;45577;-73
2023/07/06 06:37:54;;;;;;;;;8.33;8.33;;;;;19.77;50.94;101266.53;5067962;27;45556;-72
2023/07/06 06:40:21;;;;;;;;;8.33;7.00;;;;;19.96;50.45;101293.59;5064911;28;45523;-71
2023/07/06 06:42:47;;;;;;;;;13.33;10.67;;;;;19.97;50.62;101293.59;5066862;27;45381;-71
2023/07/06 06:45:13;;;;;;;;;4.33;4.00;;;;;19.99;50.20;101290.88;5074850;28;45266;-70
2023/07/06 06:47:39;;;;;;;;;7.00;6.00;;;;;20.06;49.99;101301.69;5075752;28;45384;-73
2023/07/06 06:50:05;;;;;;;;;8.33;6.00;;;;;20.06;49.87;101285.41;5056577;28;45364;-74
2023/07/06 06:52:32;;;;;;;;;4.33;3.67;;;;;20.07;49.78;101279.06;5060929;27;45402;-74
2023/07/06 06:54:57;;;;;;;;;6.00;5.00;;;;;20.23;49.70;101306.16;5075019;28;45353;-71
2023/07/06 06:57:23;;;;;;;;;12.33;7.33;;;;;20.25;49.57;101307.94;5074902;28;45427;-69
2023/07/06 06:59:49;;;;;;;;;5.00;3.67;;;;;20.18;49.33;101280.84;5067826;28;45276;-72
2023/07/06 07:02:15;;;;;;;;;5.67;4.33;;;;;20.32;48.96;101297.94;5055359;28;46055;-72
2023/07/06 07:04:40;;;;;;;;;8.33;6.00;;;;;20.38;48.79;101300.63;5065349;28;45374;-71
2023/07/06 07:07:06;;;;;;;;;9.33;7.67;;;;;20.39;48.50;101297.03;5070779;28;45423;-72
2023/07/06 07:09:32;;;;;;;;;11.33;9.33;;;;;20.50;48.47;101306.91;5074789;28;45521;-73
2023/07/06 07:11:58;;;;;;;;;7.33;7.00;;;;;20.27;48.53;101256.38;5070207;28;46602;-71
2023/07/06 07:14:23;;;;;;;;;5.67;5.67;;;;;20.54;48.00;101290.59;5063420;28;45313;-73
2023/07/06 07:16:49;;;;;;;;;6.00;6.00;;;;;20.69;47.95;101313.16;5056720;28;45290;-73
2023/07/06 07:19:15;;;;;;;;;4.00;4.00;;;;;20.67;47.71;101296.88;5062128;28;45422;-70
2023/07/06 07:21:40;;;;;;;;;5.33;3.33;;;;;20.76;47.63;101302.25;5073823;27;46581;-73
2023/07/06 07:24:05;;;;;;;;;5.00;5.00;;;;;20.87;47.48;101309.41;5074834;28;45527;-70
2023/07/06 07:26:31;;;;;;;;;25.50;21.00;;;;;20.91;47.42;101305.78;5074317;28;45526;-72
2023/07/06 07:29:01;;;;;;;;;8.00;5.67;;;;;20.88;47.02;101293.09;5056161;28;45512;-71
2023/07/06 07:31:27;;;;;;;;;6.33;6.33;;;;;20.95;46.84;101302.09;5055355;28;46986;-71
2023/07/06 07:33:53;;;;;;;;;8.00;7.33;;;;;20.93;46.73;101301.22;5039437;28;45409;-72
2023/07/06 07:36:19;;;;;;;;;4.00;4.00;;;;;20.95;46.85;101297.59;5056232;28;45286;-73
2023/07/06 07:38:49;;;;;;;;;5.67;5.00;;;;;20.89;46.65;101277.72;5046628;28;45650;-74
2023/07/06 07:41:18;;;;;;;;;4.00;4.00;;;;;21.04;46.56;101295.72;5053995;28;47622;-71
2023/07/06 07:43:46;;;;;;;;;11.00;7.33;;;;;21.10;46.34;101296.56;5067024;28;45377;-75
2023/07/06 07:46:13;;;;;;;;;11.33;8.00;;;;;21.17;46.06;101295.59;5055864;28;45512;-73
2023/07/06 07:48:45;;;;;;;;;7.67;7.67;;;;;21.21;46.34;101290.13;5069786;27;45575;-72
2023/07/06 07:51:23;;;;;;;;;5.00;5.00;;;;;21.24;46.18;101279.25;5073451;27;45533;-72
2023/07/06 07:53:49;;;;;;;;;6.67;6.00;;;;;21.43;45.83;101294.47;5056886;28;45247;-72
2023/07/06 07:56:15;;;;;;;;;11.33;6.00;;;;;21.43;45.80;101297.19;5073851;27;45450;-71
2023/07/06 07:58:43;;;;;;;;;6.33;5.00;;;;;21.40;45.79;101280.91;5056031;28;45723;-71
2023/07/06 08:01:13;;;;;;;;;7.00;7.00;;;;;21.55;45.68;101282.59;5073855;27;46301;-73
2023/07/06 08:03:39;;;;;;;;;12.67;7.00;;;;;21.48;45.52;101253.63;5067734;28;45469;-71
2023/07/06 08:06:08;;;;;;;;;6.33;5.33;;;;;21.68;45.12;101275.22;5052501;28;45464;-71
2023/07/06 08:08:36;;;;;;;;;7.67;4.00;;;;;21.83;44.89;101283.19;5070371;28;45402;-69
2023/07/06 08:11:25;;;;;;;;;5.67;5.00;;;;;21.75;44.73;101260.59;5073554;27;46240;-71
2023/07/06 08:13:53;;;;;;;;;8.67;7.00;;;;;21.88;44.64;101266.81;5072847;27;45475;-71
2023/07/06 08:16:20;;;;;;;;;7.00;4.00;;;;;22.05;44.22;101281.09;5073223;28;45441;-72
2023/07/06 08:18:46;;;;;;;;;6.00;5.00;;;;;22.11;43.88;101282.84;5073446;28;45499;-72
2023/07/06 08:21:11;;;;;;;;;6.33;6.33;;;;;22.09;43.76;101271.97;5065976;27;45960;-72
2023/07/06 08:23:40;;;;;;;;;7.00;5.00;;;;;22.23;43.97;101279.94;5053467;28;45643;-70
2023/07/06 08:26:08;;;;;;;;;7.00;7.00;;;;;22.29;43.77;101261.75;5067496;28;45406;-72
2023/07/06 08:28:34;;;;;;;;;18.00;12.00;;;;;22.36;43.73;101263.50;5065601;28;45416;-71
2023/07/06 08:31:03;;;;;;;;;6.67;4.00;;;;;22.38;42.96;101250.75;5067254;27;45573;-72
2023/07/06 08:33:35;;;;;;;;;7.33;5.33;;;;;22.49;42.91;101267.84;5073263;28;45585;-71
2023/07/06 08:36:03;;;;;;;;;6.00;5.00;;;;;22.55;42.76;101266.81;5072914;28;45381;-71
2023/07/06 08:38:31;;;;;;;;;4.67;4.00;;;;;22.53;42.41;101268.69;5054515;28;45708;-71
2023/07/06 08:40:59;;;;;;;;;7.67;5.67;;;;;22.58;42.28;101262.22;5072728;27;46184;-72
2023/07/06 08:43:26;;;;;;;;;7.33;6.00;;;;;22.67;42.15;101271.19;5065063;27;45456;-72
2023/07/06 08:46:00;;;;;;;;;7.33;6.00;;;;;22.74;42.14;101262.00;5070530;27;45408;-71
2023/07/06 08:48:27;;;;;;;;;6.33;5.67;;;;;22.48;41.79;101207.94;5073896;27;45449;-74
2023/07/06 08:50:58;;;;;;;;;6.33;4.67;;;;;22.78;41.54;101256.47;5072717;27;46453;-72
2023/07/06 08:53:30;;;;;;;;;5.67;4.67;;;;;22.78;41.76;101264.63;5071628;28;45325;-70
2023/07/06 08:55:57;;;;;;;;;6.67;6.67;;;;;22.85;40.97;101254.56;5055077;28;45568;-72
2023/07/06 08:58:29;;;;;;;;;6.33;6.00;;;;;22.91;41.12;101268.06;5076298;27;45417;-69
2023/07/06 09:01:01;;;;;;;;;5.33;4.00;;;;;22.90;41.09;101266.28;5076286;27;46400;-71
2023/07/06 09:03:28;;;;;;;;;5.33;4.00;;;;;22.87;40.79;101277.25;5057548;28;45290;-70
2023/07/06 09:05:54;;;;;;;;;12.67;7.33;;;;;22.96;41.24;101271.63;5076685;27;45559;-71
2023/07/06 09:08:26;;;;;;;;;4.33;4.33;;;;;22.91;40.02;101248.09;5073836;27;45502;-71
2023/07/06 09:10:53;;;;;;;;;4.33;2.33;;;;;23.07;39.57;101274.22;5076046;27;45660;-71
2023/07/06 09:13:26;;;;;;;;;3.00;2.67;;;;;23.11;39.55;101283.22;5073947;27;45732;-72
2023/07/06 09:16:00;;;;;;;;;3.00;3.00;;;;;23.02;39.63;101254.28;5076576;27;45499;-71
2023/07/06 09:18:26;;;;;;;;;4.67;4.67;;;;;23.24;39.48;101273.91;5076690;27;45453;-71
2023/07/06 09:20:53;;;;;;;;;5.33;4.33;;;;;23.25;39.25;101264.81;5075413;27;45616;-70
2023/07/06 09:23:19;;;;;;;;;5.67;4.67;;;;;23.41;39.42;101264.53;5046671;28;45440;-70
2023/07/06 09:25:46;;;;;;;;;5.00;5.00;;;;;23.28;39.23;101228.41;5056099;28;45752;-70
2023/07/06 09:28:28;;;;;;;;;5.67;5.67;;;;;23.35;38.84;101224.66;5050223;28;45594;-71
2023/07/06 09:31:14;;;;;;;;;7.00;4.67;;;;;23.59;38.90;101255.97;5054633;28;46661;-71
2023/07/06 09:33:45;;;;;;;;;7.33;5.33;;;;;23.46;38.29;101238.06;5049370;28;45368;-70
2023/07/06 09:36:16;;;;;;;;;5.67;5.33;;;;;23.42;38.82;101242.69;5037769;28;45691;-72
2023/07/06 09:38:45;;;;;;;;;6.33;5.33;;;;;23.51;38.93;101247.97;5057029;28;45462;-72
2023/07/06 09:41:22;;;;;;;;;6.33;5.00;;;;;23.63;38.74;101256.84;5051441;28;46502;-72
2023/07/06 09:43:54;;;;;;;;;18.00;15.00;;;;;23.66;39.11;101240.38;5043126;28;45510;-74
2023/07/06 09:46:22;;;;;;;;;5.00;5.00;;;;;24.02;38.47;101262.44;5054445;28;45531;-72
2023/07/06 09:48:47;;;;;;;;;4.00;4.00;;;;;24.16;37.68;101245.75;5055195;28;45401;-76
2023/07/06 09:51:19;;;;;;;;;5.00;4.67;;;;;24.15;37.54;101233.03;5049919;28;46208;-72
2023/07/06 09:53:58;;;;;;;;;6.33;5.00;;;;;24.31;37.14;101255.44;5050729;28;45383;-73
2023/07/06 09:56:24;;;;;;;;;5.00;5.00;;;;;24.26;37.23;101258.28;5055433;28;45496;-72
2023/07/06 09:58:51;;;;;;;;;5.33;5.33;;;;;24.34;37.11;101259.00;5055054;28;45527;-72
2023/07/06 10:01:34;;;;;;;;;6.50;6.50;;;;;24.39;37.05;101254.34;5047829;28;45902;-74
2023/07/06 10:04:03;;;;;;;;;6.33;4.67;;;;;24.50;36.37;101253.16;5055802;28;45569;-74
2023/07/06 10:06:53;;;;;;;;;6.00;5.67;;;;;24.49;36.12;101260.47;5055520;28;45420;-72
2023/07/06 10:09:27;;;;;;;;;5.00;4.00;;;;;24.40;36.06;101253.41;5045350;28;45492;-71
2023/07/06 10:12:01;;;;;;;;;5.00;5.00;;;;;24.28;36.59;101249.09;5053629;28;47140;-71
2023/07/06 10:14:37;;;;;;;;;5.00;5.00;;;;;24.19;37.03;101251.16;5047725;28;45404;-72
2023/07/06 10:17:35;;;;;;;;;6.67;6.67;;;;;24.14;36.44;101251.25;5053396;28;45434;-74
2023/07/06 10:20:26;;;;;;;;;9.00;5.00;;;;;23.92;36.57;101223.50;5054977;28;45508;-73
2023/07/06 10:23:12;;;;;;;;;6.00;6.00;;;;;24.01;37.07;101242.44;5037731;28;48355;-72
2023/07/06 10:26:03;;;;;;;;;6.00;6.00;;;;;23.81;36.95;101217.34;5050700;28;45549;-76
2023/07/06 10:28:38;;;;;;;;;4.00;4.00;;;;;23.95;37.70;101245.28;5054411;28;45488;-73
2023/07/06 10:31:08;;;;;;;;;6.33;5.33;;;;;23.84;37.56;101228.22;5054713;28;45357;-71
2023/07/06 10:33:45;;;;;;;;;7.00;6.33;;;;;23.98;37.45;101244.34;5051244;28;45781;-74
2023/07/06 10:36:16;;;;;;;;;4.67;4.67;;;;;24.03;36.55;101229.63;5042396;28;45345;-73
2023/07/06 10:38:42;;;;;;;;;6.00;5.00;;;;;24.18;36.38;101246.63;5054479;28;45445;-74
2023/07/06 10:41:09;;;;;;;;;8.00;6.00;;;;;24.26;36.03;101245.50;5054648;28;45429;-72
2023/07/06 10:43:38;;;;;;;;;10.00;7.00;;;;;24.32;35.30;101239.03;5053244;28;46967;-73
2023/07/06 10:46:27;;;;;;;;;8.00;7.00;;;;;24.38;35.65;101227.06;5052853;28;45406;-74
2023/07/06 10:49:00;;;;;;;;;5.00;5.00;;;;;24.52;35.48;101232.16;5045663;28;45532;-71
2023/07/06 10:51:27;;;;;;;;;4.67;4.67;;;;;24.54;34.60;101230.31;5047513;28;45393;-70
2023/07/06 10:54:06;;;;;;;;;3.67;3.67;;;;;24.68;34.83;101239.09;5049782;28;46305;-72
2023/07/06 10:56:43;;;;;;;;;5.67;4.00;;;;;24.69;35.11;101235.44;5054250;28;45500;-72
2023/07/06 10:59:19;;;;;;;;;9.33;8.33;;;;;24.83;34.79;101236.00;5049664;28;45510;-72
2023/07/06 11:01:46;;;;;;;;;6.00;6.00;;;;;24.91;34.00;101238.53;5054351;28;45429;-72
2023/07/06 11:04:40;;;;;;;;;6.67;5.00;;;;;24.90;33.86;101228.56;5045513;28;45558;-74
2023/07/06 11:07:10;;;;;;;;;9.67;9.00;;;;;24.91;34.41;101223.97;5052119;28;45616;-72
2023/07/06 11:09:49;;;;;;;;;8.33;8.33;;;;;24.96;33.76;101228.41;5046423;28;45423;-74
2023/07/06 11:12:18;;;;;;;;;5.00;4.00;;;;;24.98;33.93;101225.63;5042116;28;45532;-71
2023/07/06 11:14:44;;;;;;;;;5.67;4.00;;;;;25.04;34.01;101219.09;5053588;28;46704;-72
2023/07/06 11:17:48;;;;;;;;;5.00;4.33;;;;;25.04;33.70;101210.88;5054041;28;45408;-71
2023/07/06 11:20:24;;;;;;;;;7.00;6.00;;;;;25.15;32.96;101222.44;5049915;28;45467;-72
2023/07/06 11:22:56;;;;;;;;;4.00;4.00;;;;;25.22;32.91;101218.59;5053910;28;45365;-71
2023/07/06 11:25:24;;;;;;;;;6.33;6.33;;;;;25.22;31.54;101213.13;5063205;28;46046;-72
2023/07/06 11:28:01;;;;;;;;;5.00;4.67;;;;;25.23;31.45;101209.47;5028592;28;45515;-72
2023/07/06 11:30:40;;;;;;;;;4.00;3.67;;;;;25.25;31.22;101209.41;5071515;27;45705;-71
2023/07/06 11:33:32;;;;;;;;;3.33;3.00;;;;;25.25;30.99;101218.50;5058915;28;45419;-72
2023/07/06 11:36:13;;;;;;;;;3.00;3.00;;;;;25.16;31.08;101221.47;5057174;27;45707;-72